Nearby METAR Reports

 

KCIC - Chico Municipal, California, USA
Distance from station: SSW 12mi, 20km
Updated: Sun, 10-Dec-2017 3:55pm PST
Clear
Clear
 Wind from calm
Wind: Calm
Temperature: 63°F , 17°C
Dew Point: 32°F , 0°C
Humidity: 32%
Barometer: 30.24 inHg , 1024 hPa
Clouds: Clear
Visibility: 10 miles , 16 km
2017/12/10 23:55 KCIC 102355Z AUTO 00000KT 10SM CLR 17/00 A3024 RMK AO1
KOVE - Oroville, California, USA
Distance from station: SSE 31mi, 50km
Updated: Sun, 10-Dec-2017 3:53pm PST
Clear
Clear
 Wind from calm
Wind: Calm
Temperature: 61°F , 16°C
Dew Point: 34°F , 1°C
Humidity: 36%
Barometer: 30.25 inHg , 1024.4 hPa
Clouds: Clear
Visibility: 10 miles , 16 km
2017/12/10 23:53 KOVE 102353Z AUTO 00000KT 10SM CLR 16/01 A3025 RMK AO2 SLP244 T01560011 10161 20094 56016
 
KRBL - Red Bluff, California, USA
Distance from station: WNW 31mi, 50km
Updated: Sun, 10-Dec-2017 3:54pm PST
Clear
Clear
 Wind from calm
Wind: Calm
Temperature: 70°F , 21°C
Dew Point: 32°F , 0°C
Humidity: 25%
Barometer: 30.23 inHg , 1023.7 hPa
Clouds: Clear
Visibility: 10 miles , 16 km
2017/12/10 23:54 KRBL 102354Z AUTO 00000KT 10SM CLR 21/00 A3023 RMK AO2 SLP236 T02060000 10217 20122 56016
KRDD - Redding, California, USA
Distance from station: NW 50mi, 80km
Updated: Sun, 10-Dec-2017 3:53pm PST
Clear
Clear
 Wind from NNW
Wind: NNW 3 mph , 6 km/h
Temperature: 72°F , 22°C
Dew Point: 23°F , -5°C
Humidity: 16%
Barometer: 30.21 inHg , 1023 hPa
Clouds: Clear
Visibility: 10 miles , 16 km
2017/12/10 23:53 KRDD 102353Z 34003KT 10SM CLR 22/M05 A3021 RMK AO2 SLP231 T02171050 10228 20078 56016
 
KMYV - Marysville, California, USA
Distance from station: S 59mi, 95km
Updated: Sun, 10-Dec-2017 3:53pm PST
Clear
Clear
 Wind from calm
Wind: Calm
Temperature: 63°F , 17°C
Dew Point: 36°F , 2°C
Humidity: 37%
Barometer: 30.24 inHg , 1024 hPa
Clouds: Clear
Visibility: 10 miles , 16 km
2017/12/10 23:53 KMYV 102353Z AUTO 00000KT 10SM CLR 17/02 A3024 RMK AO2 SLP243 T01670022 10178 20094 56016
KBAB - Beale Afb/Marysv, California, USA
Distance from station: SSE 59mi, 96km
Updated: Sun, 10-Dec-2017 3:58pm PST
Clear
Clear
 Wind from calm
Wind: Calm
Temperature: 61°F , 16°C
Dew Point: 41°F , 5°C
Humidity: 48%
Barometer: 30.22 inHg , 1023.4 hPa
Clouds: Clear
Visibility: 10 miles , 16 km
2017/12/10 23:58 KBAB 102358Z AUTO 00000KT 10SM CLR 16/05 A3022 RMK AO2 SLP237 T01590047 10165 20092 56014 PNO $
 
KGOO - Grass Valley, California, USA
Distance from station: SE 63mi, 102km
Updated: Sun, 10-Dec-2017 4:00pm PST
Clear
Clear
 Wind from W
Wind: W 3 mph , 6 km/h
Temperature: 63°F , 17°C
Dew Point: 30°F , -1°C
Humidity: 30%
Barometer: 30.28 inHg , 1025.4 hPa
Clouds: Clear
Visibility: 10 miles , 16 km
2017/12/11 00:00 KGOO 110000Z AUTO 28003KT 10SM CLR 17/M01 A3028 RMK AO1
KBLU - Emigrant Gap, California, USA
Distance from station: SE 71mi, 115km
Updated: Sun, 10-Dec-2017 3:52pm PST
Clear
Clear
 Wind from calm
Wind: Calm
Temperature: 61°F , 16°C
Dew Point: 30°F , -1°C
Humidity: 31%
Barometer: 30.36 inHg , 1028.1 hPa
Clouds: Clear
Visibility: 10 miles , 16 km
2017/12/10 23:52 KBLU 102352Z AUTO 00000KT 10SM CLR 16/M01 A3036 RMK AO2 SLP224 T01561006 10178 20150 56007 TSNO
 
KLHM - Lincoln, California, USA
Distance from station: SSE 74mi, 119km
Updated: Sun, 10-Dec-2017 3:55pm PST
Clear
Clear
 Wind from calm
Wind: Calm
Temperature: 61°F , 16°C
Dew Point: 36°F , 2°C
Humidity: 39%
Barometer: 30.23 inHg , 1023.7 hPa
Clouds: Clear
Visibility: 10 miles , 16 km
2017/12/10 23:55 KLHM 102355Z AUTO 00000KT 10SM CLR 16/02 A3023 RMK AO1
KAUN - Auburn Muni, California, USA
Distance from station: SSE 77mi, 123km
Updated: Sun, 10-Dec-2017 3:55pm PST
Clear
Clear
 Wind from calm
Wind: Calm
Temperature: 61°F , 16°C
Dew Point: 41°F , 5°C
Humidity: 48%
Barometer: 30.25 inHg , 1024.4 hPa
Clouds: Clear
Visibility: 10 miles , 16 km
2017/12/10 23:55 KAUN 102355Z AUTO 00000KT 10SM CLR 16/05 A3025 RMK AO1
 
KO54 - Weaverville, California, USA
Distance from station: NW 84mi, 135km
Updated: Fri, 16-Jun-2017 5:55pm PDT
NOT Current

 Wind from SW
Wind: SW 12 mph , 19 km/h, Gust: 21 mph , 33 km/h
Temperature: 81°F , 27°C
Dew Point: 54°F , 12°C
Humidity: 39%
Barometer: 30.03 inHg , 1016.9 hPa
Visibility: 10 miles , 16 km
2017/06/17 00:55 KO54 170055Z AUTO 23010G18KT 190V250 10SM 27/12 A3003 RMK AO1
KSMF - Sacramento/Metro, California, USA
Distance from station: S 86mi, 139km
Updated: Sun, 10-Dec-2017 3:53pm PST
Few Clouds
Few Clouds
 Wind from calm
Wind: Calm
Temperature: 63°F , 17°C
Dew Point: 43°F , 6°C
Humidity: 49%
Barometer: 30.23 inHg , 1023.7 hPa
Clouds: Few Clouds
Visibility: 10 miles , 16 km
Cloud details: Few Clouds 25000 ft
2017/12/10 23:53 KSMF 102353Z 00000KT 10SM FEW250 17/06 A3023 RMK AO2 SLP235 T01670061 10172 20078 56017
 
KMCC - Mcclellan Afb, California, USA
Distance from station: SSE 90mi, 145km
Updated: Sun, 10-Dec-2017 3:50pm PST
Clear
Clear
 Wind from NNW
Wind: NNW 6 mph , 9 km/h
Temperature: 59°F , 15°C
Dew Point: 39°F , 4°C
Humidity: 48%
Barometer: 30.25 inHg , 1024.4 hPa
Clouds: Clear
Visibility: 10 miles , 16 km
2017/12/10 23:50 KMCC 102350Z AUTO 34005KT 10SM CLR 15/04 A3025 RMK AO2
KTRK - Truckee Tahoe, California, USA
Distance from station: ESE 96mi, 155km
Updated: Sun, 10-Dec-2017 2:55pm PST
Clear
Clear
 Wind from calm
Wind: Calm
Temperature: 48°F , 9°C
Dew Point: 18°F , -8°C
Humidity: 29%
Barometer: 30.42 inHg , 1030.1 hPa
Clouds: Clear
Visibility: 10 miles , 16 km
2017/12/10 22:55 KTRK 102255Z 00000KT 10SM SKC 09/M08 A3042
 
KUKI - Ukiah, California, USA
Distance from station: SW 97mi, 156km
Updated: Sun, 10-Dec-2017 3:56pm PST
Clear
Clear
 Wind from W
Wind: W 6 mph , 9 km/h
Temperature: 57°F , 14°C
Dew Point: 36°F , 2°C
Humidity: 44%
Barometer: 30.20 inHg , 1022.7 hPa
Clouds: Clear
Visibility: 10 miles , 16 km
2017/12/10 23:56 KUKI 102356Z AUTO 27005KT 10SM CLR 14/02 A3020 RMK AO2 SLP226 T01440017 10183 20061 56018
KEDU - Davis, California, USA
Distance from station: S 97mi, 157km
Updated: Sun, 10-Dec-2017 3:55pm PST
Clear
Clear
 Wind from NNE
Wind: NNE 6 mph , 9 km/h
Temperature: 63°F , 17°C
Dew Point: 30°F , -1°C
Humidity: 30%
Barometer: 30.24 inHg , 1024 hPa
Clouds: Clear
Visibility: 10 miles , 16 km
2017/12/10 23:55 KEDU 102355Z AUTO 03005KT 10SM CLR 17/M01 A3024 RMK AO1
 
KMHR - Mather Field, California, USA
Distance from station: SSE 100mi, 161km
Updated: Sun, 10-Dec-2017 2:45pm PST
NOT Current
Clear
Clear
 Wind from NNW
Wind: NNW 5 mph , 7 km/h
Temperature: 63°F , 17°C
Dew Point: 43°F , 6°C
Humidity: 49%
Barometer: 30.24 inHg , 1024 hPa
Clouds: Clear
Visibility: 10 miles , 16 km
2017/12/10 22:45 KMHR 102245Z 33004KT 10SM SKC 17/06 A3024
KMHS - Mount Shasta, California, USA
Distance from station: NNW 100mi, 161km
Updated: Sun, 10-Dec-2017 3:56pm PST
Clear
Clear
 Wind from varies
Wind: varies 3 mph , 6 km/h
Temperature: 46°F , 8°C
Dew Point: 28°F , -2°C
Humidity: 50%
Barometer: 30.33 inHg , 1027.1 hPa
Clouds: Clear
Visibility: 10 miles , 16 km
2017/12/10 23:56 KMHS 102356Z AUTO VRB03KT 10SM CLR 08/M02 A3033 RMK AO2 SLP304 T00831022 10122 20056 55012
 
KRTS - Reno/Stead, Nevada, USA
Distance from station: E 100mi, 161km
Updated: Sun, 10-Dec-2017 3:55pm PST
Clear
Clear
 Wind from E
Wind: E 6 mph , 9 km/h
Temperature: 41°F , 5°C
Wind Chill: 37°F , 3°C
Dew Point: 18°F , -8°C
Humidity: 39%
Barometer: 30.48 inHg , 1032.2 hPa
Clouds: Clear
Visibility: 10 miles , 16 km
2017/12/10 23:55 KRTS 102355Z AUTO 10005KT 10SM CLR 05/M08 A3048 RMK AO2
KSAC - Sacramento, California, USA
Distance from station: S 100mi, 162km
Updated: Sun, 10-Dec-2017 3:53pm PST
Clear
Clear
 Wind from N
Wind: N 6 mph , 9 km/h
Temperature: 61°F , 16°C
Dew Point: 41°F , 5°C
Humidity: 48%
Barometer: 30.23 inHg , 1023.7 hPa
Clouds: Clear
Visibility: 10 miles , 16 km
2017/12/10 23:53 KSAC 102353Z 01005KT 10SM CLR 16/05 A3023 RMK AO2 SLP236 T01610050 10172 20094 56016